GMA01B EGMD-EGPF
Flight info
| Callsign | GMA01B |
|---|---|
| Flight time | N/A |
| Altitude | 24000 |
| Route | DET N601 RIBEL DCT ASLIB |
| Aircraft | BE20/L-SBGRY/S |
Departure
| Time | 2026-05-05 09:30 |
|---|---|
| Airport | Lydd London Ashford Airport (EGMD) |
Arrival
| Time | N/A |
|---|---|
| Airport | Glasgow Airport (EGPF) |
| Time | Latitude | Longitude | Altitude | Speed | Heading |
|---|---|---|---|---|---|
| 2026-05-05 09:22 | 50.95787 | 0.93424 | 15 ft | 0 kts | 46° |
| 2026-05-05 09:26 | 50.95798 | 0.93421 | 15 ft | 4 kts | 304° |
| 2026-05-05 09:27 | 50.95755 | 0.93385 | 15 ft | 13 kts | 150° |
| 2026-05-05 09:27 | 50.95685 | 0.93507 | 15 ft | 16 kts | 129° |
| 2026-05-05 09:27 | 50.95612 | 0.93623 | 15 ft | 17 kts | 136° |
| 2026-05-05 09:27 | 50.95544 | 0.93680 | 14 ft | 7 kts | 216° |
| 2026-05-05 09:28 | 50.95487 | 0.93619 | 15 ft | 6 kts | 232° |
| 2026-05-05 09:28 | 50.95442 | 0.93547 | 15 ft | 13 kts | 213° |
| 2026-05-05 09:28 | 50.95343 | 0.93449 | 15 ft | 20 kts | 211° |
| 2026-05-05 09:28 | 50.95288 | 0.93431 | 15 ft | 8 kts | 168° |
| 2026-05-05 09:29 | 50.95218 | 0.93462 | 16 ft | 7 kts | 146° |
| 2026-05-05 09:29 | 50.95240 | 0.93520 | 16 ft | 0 kts | 32° |
| 2026-05-05 09:30 | 50.95311 | 0.93594 | 15 ft | 41 kts | 32° |
| 2026-05-05 09:30 | 50.95741 | 0.94042 | 28 ft | 102 kts | 33° |
| 2026-05-05 09:30 | 50.96427 | 0.94707 | 309 ft | 130 kts | 33° |
| 2026-05-05 09:30 | 50.97278 | 0.95483 | 645 ft | 149 kts | 31° |
| 2026-05-05 09:31 | 50.98210 | 0.96335 | 1050 ft | 159 kts | 31° |
| 2026-05-05 09:31 | 50.99187 | 0.97242 | 1455 ft | 167 kts | 31° |
| 2026-05-05 09:31 | 51.00207 | 0.98181 | 1837 ft | 172 kts | 31° |
| 2026-05-05 09:31 | 51.01237 | 0.99138 | 2209 ft | 172 kts | 31° |
| 2026-05-05 09:32 | 51.02274 | 1.00085 | 2579 ft | 173 kts | 31° |
| 2026-05-05 09:32 | 51.03336 | 1.01038 | 2939 ft | 177 kts | 31° |
| 2026-05-05 09:32 | 51.04418 | 1.02010 | 3299 ft | 180 kts | 31° |
| 2026-05-05 09:32 | 51.05516 | 1.02983 | 3654 ft | 181 kts | 31° |
| 2026-05-05 09:33 | 51.06626 | 1.03967 | 4013 ft | 184 kts | 31° |
| 2026-05-05 09:33 | 51.07735 | 1.04971 | 4366 ft | 187 kts | 31° |
| 2026-05-05 09:33 | 51.08994 | 1.05403 | 4726 ft | 192 kts | 355° |
| 2026-05-05 09:33 | 51.10190 | 1.04374 | 5083 ft | 201 kts | 314° |
| 2026-05-05 09:34 | 51.10830 | 1.02419 | 5450 ft | 204 kts | 295° |
| 2026-05-05 09:34 | 51.11441 | 1.00402 | 5813 ft | 202 kts | 305° |
| 2026-05-05 09:34 | 51.12142 | 0.98818 | 6132 ft | 202 kts | 310° |
| 2026-05-05 09:34 | 51.12978 | 0.97102 | 6479 ft | 203 kts | 309° |
| 2026-05-05 09:35 | 51.13835 | 0.95312 | 6833 ft | 203 kts | 308° |
| 2026-05-05 09:35 | 51.15517 | 0.91712 | 7651 ft | 202 kts | 308° |
| 2026-05-05 09:35 | 51.16360 | 0.89910 | 8060 ft | 203 kts | 308° |
| 2026-05-05 09:36 | 51.17204 | 0.88105 | 8482 ft | 204 kts | 308° |
| 2026-05-05 09:36 | 51.18052 | 0.86290 | 8892 ft | 205 kts | 307° |
| 2026-05-05 09:36 | 51.18906 | 0.84464 | 9317 ft | 206 kts | 307° |
| 2026-05-05 09:36 | 51.19761 | 0.82630 | 9745 ft | 207 kts | 307° |
| 2026-05-05 09:37 | 51.20624 | 0.80781 | 10151 ft | 208 kts | 307° |
| 2026-05-05 09:37 | 51.21488 | 0.78926 | 10543 ft | 209 kts | 308° |
| 2026-05-05 09:37 | 51.22357 | 0.77060 | 10933 ft | 210 kts | 307° |
| 2026-05-05 09:37 | 51.23345 | 0.75371 | 11339 ft | 209 kts | 322° |
| 2026-05-05 09:38 | 51.24507 | 0.73990 | 11738 ft | 208 kts | 324° |
| 2026-05-05 09:38 | 51.25641 | 0.72569 | 12143 ft | 206 kts | 321° |
| 2026-05-05 09:38 | 51.26739 | 0.71074 | 12523 ft | 210 kts | 320° |
| 2026-05-05 09:38 | 51.27833 | 0.69568 | 12909 ft | 216 kts | 320° |
| 2026-05-05 09:39 | 51.28985 | 0.67999 | 13323 ft | 220 kts | 321° |
| 2026-05-05 09:39 | 51.30159 | 0.66405 | 13750 ft | 223 kts | 321° |
| 2026-05-05 09:39 | 51.31344 | 0.64792 | 14140 ft | 224 kts | 320° |
| 2026-05-05 09:39 | 51.32531 | 0.63174 | 14522 ft | 224 kts | 320° |
| 2026-05-05 09:40 | 51.33712 | 0.61563 | 14820 ft | 222 kts | 320° |
| 2026-05-05 09:40 | 51.34883 | 0.59965 | 15202 ft | 220 kts | 320° |
| 2026-05-05 09:40 | 51.36047 | 0.58375 | 15594 ft | 220 kts | 320° |
| 2026-05-05 09:40 | 51.37207 | 0.56790 | 15989 ft | 219 kts | 320° |
| 2026-05-05 09:41 | 51.38365 | 0.55206 | 16393 ft | 219 kts | 320° |
| 2026-05-05 09:41 | 51.39521 | 0.53624 | 16800 ft | 218 kts | 319° |
| 2026-05-05 09:41 | 51.40674 | 0.52045 | 17211 ft | 218 kts | 319° |
| 2026-05-05 09:41 | 51.41719 | 0.50613 | 17593 ft | 218 kts | 319° |
| 2026-05-05 09:42 | 51.42868 | 0.49039 | 18017 ft | 217 kts | 319° |
| 2026-05-05 09:42 | 51.44013 | 0.47468 | 18422 ft | 217 kts | 318° |
| 2026-05-05 09:42 | 51.45157 | 0.45895 | 18793 ft | 217 kts | 317° |
| 2026-05-05 09:42 | 51.46300 | 0.44326 | 19171 ft | 216 kts | 318° |
| 2026-05-05 09:43 | 51.47443 | 0.42754 | 19555 ft | 216 kts | 317° |
| 2026-05-05 09:43 | 51.48586 | 0.41182 | 19938 ft | 216 kts | 317° |
| 2026-05-05 09:43 | 51.49727 | 0.39611 | 20330 ft | 216 kts | 316° |
| 2026-05-05 09:43 | 51.50864 | 0.38045 | 20726 ft | 215 kts | 317° |
| 2026-05-05 09:44 | 51.51980 | 0.36505 | 21126 ft | 214 kts | 316° |
| 2026-05-05 09:44 | 51.53107 | 0.34951 | 21535 ft | 213 kts | 316° |
| 2026-05-05 09:44 | 51.54229 | 0.33403 | 21950 ft | 212 kts | 317° |
| 2026-05-05 09:44 | 51.55342 | 0.31865 | 22369 ft | 210 kts | 316° |
| 2026-05-05 09:45 | 51.56449 | 0.30333 | 22795 ft | 209 kts | 316° |
| 2026-05-05 09:45 | 51.57547 | 0.28815 | 23223 ft | 208 kts | 316° |
| 2026-05-05 09:45 | 51.58269 | 0.27815 | 23512 ft | 206 kts | 316° |
| 2026-05-05 09:45 | 51.59464 | 0.26160 | 23917 ft | 204 kts | 315° |
| 2026-05-05 09:46 | 51.60571 | 0.24622 | 23986 ft | 220 kts | 316° |
| 2026-05-05 09:46 | 51.61767 | 0.22964 | 23999 ft | 234 kts | 316° |
| 2026-05-05 09:46 | 51.63036 | 0.21206 | 24000 ft | 246 kts | 316° |
| 2026-05-05 09:46 | 51.64354 | 0.19380 | 23999 ft | 254 kts | 316° |
| 2026-05-05 09:47 | 51.64809 | 0.18747 | 23998 ft | 257 kts | 316° |